Archival Weather

Al Ahsa

Al Ahsa, Saudi Arabia (OEAH)

Report from: Friday, May 26, 2023 6:00 PM +03
Current time: Monday, July 22, 2024 2:03 PM +03

Current weather – Weather history – Daily summaries
Weather forecast

Temperature40.0°C (104.0°F)
Heat index37.1°C (98.8°F)
Dew point3.0°C (37.4°F)
Winds 5 kts (2.6 m/s, 5.8 mph) North-Northwest (340°)
Clouds Sky clear
Altimeter29.71 in.Hg (1006 mB)
Relative humidity10 %
Density altitude3,167 ft. (965 m)
Remarks Ceiling and visibility OK
No significant changes expected in the next two hours
Flight conditions Visual Meteorological Conditions
Raw dataOEAH 261500Z 34005KT CAVOK 40/03 Q1006 NOSIG
An error has occurred. This application may no longer respond until reloaded. Reload 🗙